createdAt,value
2022-10-22T00:00:50.457Z,22.23
2022-10-22T00:03:18.029Z,20.00
2022-10-22T00:05:45.742Z,23.48
2022-10-22T00:08:15.072Z,22.75
2022-10-22T00:10:42.739Z,19.20
2022-10-22T00:13:11.504Z,19.85
2022-10-22T00:15:39.362Z,19.42
2022-10-22T00:18:07.150Z,19.85
2022-10-22T00:20:34.936Z,20.75
2022-10-22T00:23:02.750Z,22.13
2022-10-22T00:25:32.121Z,17.83
2022-10-22T00:27:59.692Z,19.80
2022-10-22T00:30:27.417Z,21.67
2022-10-22T00:32:54.982Z,21.90
2022-10-22T00:35:22.544Z,20.83
2022-10-22T00:37:50.206Z,19.52
2022-10-22T00:40:17.883Z,19.27
2022-10-22T00:42:46.753Z,20.83
2022-10-22T00:45:21.300Z,19.75
2022-10-22T00:47:54.312Z,19.75
2022-10-22T00:50:25.717Z,21.58
2022-10-22T00:52:53.709Z,21.73
2022-10-22T00:55:22.446Z,24.13
2022-10-22T00:57:52.001Z,21.15
2022-10-22T01:00:20.199Z,20.27
2022-10-22T01:02:49.781Z,18.13
2022-10-22T01:05:17.678Z,20.42
2022-10-22T01:07:48.803Z,20.20
2022-10-22T01:10:27.900Z,19.33
2022-10-22T01:13:06.908Z,21.83
2022-10-22T01:15:50.183Z,19.92
2022-10-22T01:18:24.051Z,21.13
2022-10-22T01:21:04.585Z,18.02
2022-10-22T01:24:06.993Z,21.35
2022-10-22T01:26:48.422Z,23.85
2022-10-22T01:29:21.501Z,20.95
2022-10-22T01:31:54.404Z,19.05
2022-10-22T01:34:24.060Z,18.10
2022-10-22T01:36:53.906Z,19.90
2022-10-22T01:39:23.279Z,20.95
2022-10-22T01:41:59.147Z,19.95
2022-10-22T01:44:31.151Z,19.40
2022-10-22T01:47:13.264Z,21.15
2022-10-22T01:49:57.753Z,22.77
2022-10-22T01:52:35.889Z,18.75
2022-10-22T01:55:11.561Z,19.85
2022-10-22T01:57:45.225Z,20.27
2022-10-22T02:00:16.292Z,23.13
2022-10-22T02:02:50.072Z,23.98
2022-10-22T02:05:22.490Z,21.40
2022-10-22T02:07:55.303Z,23.08
2022-10-22T02:10:24.698Z,24.02
2022-10-22T02:12:56.341Z,22.10
2022-10-22T02:15:28.328Z,24.38
2022-10-22T02:17:58.025Z,22.02
2022-10-22T02:20:28.875Z,23.45
2022-10-22T02:22:57.359Z,23.40
2022-10-22T02:25:26.642Z,18.33
2022-10-22T02:28:01.521Z,21.10
2022-10-22T02:30:32.430Z,22.88
2022-10-22T02:33:06.062Z,22.13
2022-10-22T02:35:34.591Z,22.95
2022-10-22T02:38:02.992Z,20.17
2022-10-22T02:40:32.202Z,20.08
2022-10-22T02:43:01.007Z,20.58
2022-10-22T02:45:30.065Z,18.92
2022-10-22T02:47:57.824Z,23.08
2022-10-22T02:50:25.389Z,21.88
2022-10-22T02:52:53.107Z,21.23
2022-10-22T02:55:20.723Z,20.58
2022-10-22T02:57:48.368Z,17.95
2022-10-22T03:00:16.900Z,19.13
2022-10-22T03:02:45.765Z,17.20
2022-10-22T03:05:13.571Z,17.90
2022-10-22T03:07:41.277Z,22.20
2022-10-22T03:10:10.140Z,22.83
2022-10-22T03:12:37.735Z,19.90
2022-10-22T03:15:06.171Z,20.60
2022-10-22T03:17:33.859Z,19.75
2022-10-22T03:20:02.941Z,21.52
2022-10-22T03:22:38.933Z,18.33
2022-10-22T03:25:12.057Z,19.27
2022-10-22T03:27:41.462Z,20.85
2022-10-22T03:30:10.490Z,21.27
2022-10-22T03:32:38.079Z,18.60
2022-10-22T03:35:07.594Z,21.38
2022-10-22T03:37:37.074Z,20.90
2022-10-22T03:40:07.484Z,24.25
2022-10-22T03:42:35.203Z,21.92
2022-10-22T03:45:02.857Z,19.75
2022-10-22T03:47:30.552Z,20.30
2022-10-22T03:49:58.168Z,22.27
2022-10-22T03:52:27.053Z,19.52
2022-10-22T03:54:54.715Z,18.25
2022-10-22T03:57:22.287Z,20.63
2022-10-22T03:59:50.943Z,21.15
2022-10-22T04:02:18.644Z,19.58
2022-10-22T04:04:46.206Z,24.08
2022-10-22T04:07:13.871Z,22.33
2022-10-22T04:09:42.825Z,23.50
2022-10-22T04:12:10.799Z,22.88
2022-10-22T04:14:38.331Z,21.98
2022-10-22T04:17:05.906Z,22.02
2022-10-22T04:19:33.844Z,21.35
2022-10-22T04:22:01.853Z,18.65
2022-10-22T04:24:31.080Z,21.42
2022-10-22T04:27:00.240Z,21.75
2022-10-22T04:29:28.025Z,22.35
2022-10-22T04:31:55.540Z,25.00
2022-10-22T04:34:23.121Z,23.90
2022-10-22T04:36:50.747Z,22.48
2022-10-22T04:39:18.252Z,21.65
2022-10-22T04:41:45.770Z,22.33
2022-10-22T04:44:17.706Z,24.75
2022-10-22T04:46:46.273Z,25.75
2022-10-22T04:49:14.429Z,24.48
2022-10-22T04:51:42.152Z,30.15
2022-10-22T04:54:09.861Z,22.08
2022-10-22T04:56:37.384Z,23.65
2022-10-22T04:59:06.796Z,23.50
2022-10-22T05:01:40.177Z,17.95
2022-10-22T05:04:13.374Z,21.23
2022-10-22T05:06:41.126Z,21.17
2022-10-22T05:09:12.260Z,22.98
2022-10-22T05:11:45.276Z,22.15
2022-10-22T05:14:13.857Z,22.63
2022-10-22T05:16:43.039Z,28.90
2022-10-22T05:19:17.140Z,21.92
2022-10-22T05:21:44.671Z,20.67
2022-10-22T05:24:12.284Z,25.42
2022-10-22T05:26:39.848Z,21.95
2022-10-22T05:29:07.498Z,24.48
2022-10-22T05:31:35.542Z,21.30
2022-10-22T05:34:04.533Z,22.35
2022-10-22T05:36:32.043Z,26.83
2022-10-22T05:38:59.765Z,26.55
2022-10-22T05:41:29.022Z,26.00
2022-10-22T05:43:57.857Z,22.27
2022-10-22T05:46:27.531Z,24.67
2022-10-22T05:48:57.116Z,25.02
2022-10-22T05:51:27.465Z,23.88
2022-10-22T05:53:57.302Z,25.92
2022-10-22T05:56:25.839Z,21.95
2022-10-22T05:58:53.631Z,24.08
2022-10-22T06:01:23.132Z,26.05
2022-10-22T06:03:53.669Z,22.38
2022-10-22T06:06:23.461Z,23.30
2022-10-22T06:08:54.494Z,26.77
2022-10-22T06:11:24.038Z,22.52
2022-10-22T06:13:52.695Z,27.58
2022-10-22T06:16:20.336Z,26.02
2022-10-22T06:18:47.893Z,25.35
2022-10-22T06:21:17.208Z,26.80
2022-10-22T06:23:45.282Z,26.75
2022-10-22T06:26:14.220Z,28.70
2022-10-22T06:28:41.757Z,30.00
2022-10-22T06:31:10.566Z,25.42
2022-10-22T06:33:42.341Z,28.77
2022-10-22T06:36:12.373Z,27.25
2022-10-22T06:38:40.294Z,26.88
2022-10-22T06:41:09.876Z,22.02
2022-10-22T06:43:39.185Z,23.77
2022-10-22T06:46:09.762Z,24.48
2022-10-22T06:48:38.351Z,24.40
2022-10-22T06:51:07.504Z,24.80
2022-10-22T06:53:35.970Z,21.83
2022-10-22T06:56:06.292Z,22.25
2022-10-22T06:58:33.980Z,23.15
2022-10-22T07:01:04.472Z,24.05
2022-10-22T07:03:32.175Z,22.17
2022-10-22T07:06:00.888Z,25.40
2022-10-22T07:08:28.497Z,25.55
2022-10-22T07:10:56.639Z,22.48
2022-10-22T07:13:24.324Z,22.88
2022-10-22T07:15:55.565Z,21.95
2022-10-22T07:18:24.569Z,24.48
2022-10-22T07:20:52.286Z,27.20
2022-10-22T07:23:20.156Z,25.23
2022-10-22T07:25:48.095Z,22.50
2022-10-22T07:28:15.842Z,20.67
2022-10-22T07:30:43.466Z,19.63
2022-10-22T07:33:11.508Z,22.23
2022-10-22T07:35:41.124Z,22.13
2022-10-22T07:38:09.790Z,20.33
2022-10-22T07:40:37.600Z,20.10
2022-10-22T07:43:06.151Z,21.38
2022-10-22T07:45:34.327Z,20.98
2022-10-22T07:48:02.292Z,21.77
2022-10-22T07:50:30.063Z,21.70
2022-10-22T07:52:59.206Z,25.90
2022-10-22T07:55:27.202Z,20.15
2022-10-22T07:57:54.838Z,18.95
2022-10-22T08:00:25.245Z,18.50
2022-10-22T08:02:53.320Z,21.27
2022-10-22T08:05:20.994Z,17.30
2022-10-22T08:07:48.631Z,21.05
2022-10-22T08:10:17.748Z,20.95
2022-10-22T08:12:45.387Z,19.70
2022-10-22T08:15:12.969Z,22.00
2022-10-22T08:17:40.905Z,21.13
2022-10-22T08:20:09.827Z,18.40
2022-10-22T08:22:37.534Z,19.65
2022-10-22T08:25:05.953Z,21.58
2022-10-22T08:27:35.002Z,17.92
2022-10-22T08:30:02.890Z,20.17
2022-10-22T08:32:30.500Z,21.58
2022-10-22T08:34:58.141Z,16.65
2022-10-22T08:37:25.931Z,17.13
2022-10-22T08:39:53.493Z,15.20
2022-10-22T08:42:57.678Z,17.65
2022-10-22T08:45:31.295Z,18.13
2022-10-22T08:48:10.963Z,20.42
2022-10-22T08:50:42.879Z,16.48
2022-10-22T08:53:16.527Z,20.02
2022-10-22T08:55:44.930Z,22.95
2022-10-22T08:58:22.898Z,15.13
2022-10-22T09:00:58.065Z,18.23
2022-10-22T09:03:34.752Z,19.15
2022-10-22T09:06:09.949Z,19.13
2022-10-22T09:08:38.648Z,19.13
2022-10-22T09:11:17.207Z,25.80
2022-10-22T09:13:47.400Z,15.88
2022-10-22T09:16:18.237Z,17.25
2022-10-22T09:18:59.724Z,14.15
2022-10-22T09:21:35.172Z,16.55
2022-10-22T09:24:10.485Z,16.38
2022-10-22T09:26:40.902Z,11.77
2022-10-22T09:29:18.224Z,12.90
2022-10-22T09:31:46.259Z,12.50
2022-10-22T09:34:16.017Z,14.32
2022-10-22T09:36:43.651Z,15.60
2022-10-22T09:39:24.169Z,14.07
2022-10-22T09:41:52.007Z,14.88
2022-10-22T09:44:21.702Z,13.60
2022-10-22T09:46:49.544Z,15.77
2022-10-22T09:49:19.254Z,11.85
2022-10-22T09:51:51.937Z,9.73
2022-10-22T09:54:21.910Z,11.57
2022-10-22T09:56:56.175Z,11.65
2022-10-22T09:59:33.387Z,17.92
2022-10-22T10:02:13.777Z,13.40
2022-10-22T10:04:50.065Z,8.77
2022-10-22T10:07:20.000Z,10.10
2022-10-22T10:09:48.280Z,12.27
2022-10-22T10:12:37.561Z,10.00
2022-10-22T10:15:19.276Z,10.98
2022-10-22T10:17:52.060Z,7.18
2022-10-22T10:20:30.434Z,10.00
2022-10-22T10:23:07.365Z,10.43
2022-10-22T10:25:49.609Z,9.15
2022-10-22T10:28:34.562Z,6.78
2022-10-22T10:31:16.098Z,9.32
2022-10-22T10:33:50.702Z,9.45
2022-10-22T10:36:25.642Z,6.55
2022-10-22T10:38:59.866Z,9.65
2022-10-22T10:41:38.819Z,7.50
2022-10-22T10:44:28.427Z,9.10
2022-10-22T10:47:07.768Z,7.40
2022-10-22T10:49:37.218Z,7.55
2022-10-22T10:52:18.975Z,12.75
2022-10-22T10:55:00.593Z,10.40
2022-10-22T10:57:39.405Z,11.60
2022-10-22T11:00:10.596Z,15.98
2022-10-22T11:03:05.950Z,11.00
2022-10-22T11:05:40.216Z,8.57
2022-10-22T11:08:14.666Z,12.02
2022-10-22T11:10:47.351Z,7.97
2022-10-22T11:13:29.170Z,11.05
2022-10-22T11:16:01.967Z,8.25
2022-10-22T11:18:36.530Z,9.00
2022-10-22T11:21:15.237Z,5.07
2022-10-22T11:23:50.537Z,7.40
2022-10-22T11:26:30.466Z,12.32
2022-10-22T11:29:01.346Z,8.40
2022-10-22T11:31:31.938Z,11.40
2022-10-22T11:34:28.542Z,6.32
2022-10-22T11:36:56.226Z,9.45
2022-10-22T11:39:43.101Z,10.02
2022-10-22T11:42:13.506Z,4.97
2022-10-22T11:45:00.887Z,9.23
2022-10-22T11:47:30.446Z,5.93
2022-10-22T11:50:17.039Z,13.05
2022-10-22T11:52:55.289Z,6.63
2022-10-22T11:55:45.597Z,9.18
2022-10-22T11:58:32.630Z,9.00
2022-10-22T12:01:22.264Z,8.77
2022-10-22T12:03:52.168Z,10.75
2022-10-22T12:06:24.261Z,7.15
2022-10-22T12:09:01.315Z,7.68
2022-10-22T12:11:36.999Z,8.25
2022-10-22T12:14:17.221Z,11.20
2022-10-22T12:17:02.748Z,12.10
2022-10-22T12:19:33.581Z,6.07
2022-10-22T12:22:13.902Z,10.73
2022-10-22T12:24:45.061Z,13.73
2022-10-22T12:27:22.686Z,11.18
2022-10-22T12:29:55.031Z,9.13
2022-10-22T12:32:22.770Z,8.48
2022-10-22T12:34:52.908Z,10.52
2022-10-22T12:37:24.896Z,11.93
2022-10-22T12:39:52.550Z,8.40
2022-10-22T12:42:21.907Z,7.72
2022-10-22T12:44:49.505Z,7.00
2022-10-22T12:47:19.093Z,7.88
2022-10-22T12:49:51.028Z,9.52
2022-10-22T12:52:23.704Z,6.75
2022-10-22T12:54:54.760Z,15.85
2022-10-22T12:57:24.641Z,8.77
2022-10-22T12:59:52.951Z,6.90
2022-10-22T13:02:23.925Z,8.18
2022-10-22T13:05:16.770Z,9.60
2022-10-22T13:07:49.227Z,7.45
2022-10-22T13:10:21.292Z,8.45
2022-10-22T13:12:55.516Z,7.68
2022-10-22T13:15:35.449Z,6.65
2022-10-22T13:18:05.577Z,8.73
2022-10-22T13:20:37.204Z,7.15
2022-10-22T13:23:06.824Z,6.82
2022-10-22T13:25:35.816Z,8.00
2022-10-22T13:28:21.299Z,4.95
2022-10-22T13:30:54.162Z,7.82
2022-10-22T13:33:27.044Z,3.83
2022-10-22T13:35:55.770Z,8.32
2022-10-22T13:38:26.605Z,6.32
2022-10-22T13:40:54.391Z,8.00
2022-10-22T13:43:22.346Z,4.50
2022-10-22T13:45:54.790Z,6.22
2022-10-22T13:48:24.667Z,6.03
2022-10-22T13:50:53.608Z,9.05
2022-10-22T13:53:26.637Z,12.73
2022-10-22T13:55:54.439Z,8.02
2022-10-22T13:58:24.703Z,6.10
2022-10-22T14:00:57.571Z,7.90
2022-10-22T14:03:28.973Z,12.35
2022-10-22T14:05:57.024Z,13.85
2022-10-22T14:08:27.790Z,12.70
2022-10-22T14:10:55.714Z,7.88
2022-10-22T14:13:23.523Z,10.80
2022-10-22T14:15:52.764Z,9.05
2022-10-22T14:18:25.493Z,7.18
2022-10-22T14:20:55.901Z,8.35
2022-10-22T14:23:28.008Z,8.93
2022-10-22T14:25:56.585Z,9.27
2022-10-22T14:28:24.380Z,8.80
2022-10-22T14:30:52.706Z,11.80
2022-10-22T14:33:25.703Z,6.72
2022-10-22T14:35:55.105Z,9.32
2022-10-22T14:38:23.195Z,8.63
2022-10-22T14:40:52.626Z,7.78
2022-10-22T14:43:23.213Z,8.95
2022-10-22T14:45:51.203Z,10.95
2022-10-22T14:50:49.333Z,9.85
2022-10-22T14:53:18.538Z,9.77
2022-10-22T14:55:49.058Z,7.63
2022-10-22T14:58:22.999Z,7.25
2022-10-22T15:00:54.859Z,6.18
2022-10-22T15:03:23.602Z,10.93
2022-10-22T15:05:55.867Z,7.28
2022-10-22T15:08:24.591Z,9.25
2022-10-22T15:10:59.757Z,12.80
2022-10-22T15:13:30.060Z,7.22
2022-10-22T15:16:02.342Z,10.88
2022-10-22T15:18:39.627Z,6.80
2022-10-22T15:21:09.240Z,8.00
2022-10-22T15:23:39.157Z,8.65
2022-10-22T15:26:09.039Z,10.00
2022-10-22T15:28:39.208Z,11.13
2022-10-22T15:31:08.234Z,10.85
2022-10-22T15:33:35.940Z,9.63
2022-10-22T15:36:11.751Z,8.23
2022-10-22T15:38:39.429Z,8.40
2022-10-22T15:41:10.030Z,6.85
2022-10-22T15:43:39.295Z,5.75
2022-10-22T15:46:11.788Z,6.72
2022-10-22T15:48:39.638Z,8.80
2022-10-22T15:51:11.923Z,18.80
2022-10-22T15:53:40.126Z,15.90
2022-10-22T15:56:11.790Z,12.65
2022-10-22T15:58:40.764Z,16.80
2022-10-22T16:01:10.248Z,10.45
2022-10-22T16:03:39.126Z,12.60
2022-10-22T16:06:09.090Z,14.07
2022-10-22T16:08:37.652Z,14.00
2022-10-22T16:11:05.838Z,15.60
2022-10-22T16:13:33.420Z,14.90
2022-10-22T16:16:06.936Z,13.18
2022-10-22T16:18:34.599Z,11.88
2022-10-22T16:21:02.306Z,15.95
2022-10-22T16:23:30.077Z,11.48
2022-10-22T16:25:57.670Z,11.73
2022-10-22T16:28:25.368Z,7.60
2022-10-22T16:30:53.274Z,11.75
2022-10-22T16:33:22.279Z,11.10
2022-10-22T16:35:49.908Z,11.18
2022-10-22T16:38:21.782Z,10.82
2022-10-22T16:40:52.535Z,13.95
2022-10-22T16:43:20.375Z,11.73
2022-10-22T16:45:48.850Z,11.32
2022-10-22T16:48:16.607Z,12.75
2022-10-22T16:50:46.394Z,13.25
2022-10-22T16:53:14.077Z,10.43
2022-10-22T16:55:43.516Z,12.15
2022-10-22T16:58:15.164Z,12.50
2022-10-22T17:00:43.067Z,12.15
2022-10-22T17:03:12.185Z,8.52
2022-10-22T17:05:40.138Z,11.40
2022-10-22T17:08:09.173Z,16.60
2022-10-22T17:10:37.546Z,9.93
2022-10-22T17:13:05.733Z,17.67
2022-10-22T17:15:33.627Z,13.88
2022-10-22T17:18:01.705Z,15.52
2022-10-22T17:20:29.343Z,16.02
2022-10-22T17:22:57.041Z,18.75
2022-10-22T17:25:36.310Z,12.57
2022-10-22T17:28:04.064Z,16.30
2022-10-22T17:30:31.758Z,16.08
2022-10-22T17:32:59.403Z,20.25
2022-10-22T17:37:59.799Z,17.13
2022-10-22T17:40:28.889Z,19.23
2022-10-22T17:42:57.170Z,20.25
2022-10-22T17:45:24.965Z,16.70
2022-10-22T17:47:52.939Z,13.50
2022-10-22T17:50:20.910Z,18.52
2022-10-22T17:52:48.614Z,21.85
2022-10-22T17:55:16.319Z,22.08
2022-10-22T17:57:45.467Z,29.23
2022-10-22T18:00:16.121Z,28.58
2022-10-22T18:02:44.223Z,30.15
2022-10-22T18:05:13.302Z,25.33
2022-10-22T18:07:42.042Z,27.83
2022-10-22T18:10:10.799Z,23.90
2022-10-22T18:12:38.622Z,23.50
2022-10-22T18:15:09.006Z,25.90
2022-10-22T18:17:40.191Z,24.80
2022-10-22T18:20:09.052Z,20.50
2022-10-22T18:22:36.992Z,15.05
2022-10-22T18:25:05.684Z,18.17
2022-10-22T18:27:33.651Z,16.85
2022-10-22T18:30:01.309Z,16.00
2022-10-22T18:32:32.193Z,14.82
2022-10-22T18:34:59.988Z,13.35
2022-10-22T18:37:27.659Z,12.18
2022-10-22T18:39:55.344Z,18.60
2022-10-22T18:42:24.635Z,16.13
2022-10-22T18:44:54.025Z,14.95
2022-10-22T18:47:21.642Z,14.13
2022-10-22T18:49:51.718Z,11.02
2022-10-22T18:52:19.348Z,12.77
2022-10-22T18:54:46.879Z,12.02
2022-10-22T18:57:14.454Z,8.98
2022-10-22T18:59:42.057Z,11.93
2022-10-22T19:02:10.230Z,13.27
2022-10-22T19:04:38.198Z,10.30
2022-10-22T19:07:07.261Z,12.05
2022-10-22T19:09:35.276Z,12.02
2022-10-22T19:12:03.008Z,10.77
2022-10-22T19:14:30.621Z,9.82
2022-10-22T19:16:58.287Z,10.60
2022-10-22T19:19:25.981Z,12.25
2022-10-22T19:21:53.589Z,17.00
2022-10-22T19:24:22.560Z,17.85
2022-10-22T19:26:50.790Z,17.80
2022-10-22T19:29:20.684Z,17.08
2022-10-22T19:31:50.458Z,13.82
2022-10-22T19:34:18.300Z,11.85
2022-10-22T19:36:46.118Z,16.70
2022-10-22T19:39:17.181Z,17.70
2022-10-22T19:41:46.165Z,15.95
2022-10-22T19:44:13.900Z,11.68
2022-10-22T19:46:41.525Z,12.60
2022-10-22T19:49:09.238Z,10.80
2022-10-22T19:51:37.734Z,11.98
2022-10-22T19:54:07.887Z,12.00
2022-10-22T19:56:37.567Z,9.88
2022-10-22T19:59:06.957Z,13.50
2022-10-22T20:01:35.202Z,15.68
2022-10-22T20:04:02.994Z,17.17
2022-10-22T20:06:31.475Z,16.85
2022-10-22T20:08:59.378Z,16.02
2022-10-22T20:11:29.447Z,14.88
2022-10-22T20:13:58.250Z,11.48
2022-10-22T20:16:29.895Z,12.93
2022-10-22T20:19:00.965Z,13.05
2022-10-22T20:21:28.633Z,8.50
2022-10-22T20:23:57.216Z,11.57
2022-10-22T20:26:27.884Z,11.73
2022-10-22T20:28:55.929Z,9.10
2022-10-22T20:31:26.597Z,10.40
2022-10-22T20:33:57.352Z,9.77
2022-10-22T20:36:26.325Z,11.52
2022-10-22T20:38:54.030Z,13.43
2022-10-22T20:41:23.969Z,11.88
2022-10-22T20:43:52.727Z,12.25
2022-10-22T20:46:23.019Z,13.13
2022-10-22T20:48:51.998Z,11.43
2022-10-22T20:51:21.115Z,16.58
2022-10-22T20:53:49.227Z,16.33
2022-10-22T20:56:18.061Z,15.32
2022-10-22T20:58:48.463Z,16.35
2022-10-22T21:01:21.398Z,16.65
2022-10-22T21:03:49.922Z,16.52
2022-10-22T21:06:18.117Z,15.13
2022-10-22T21:08:47.232Z,12.73
2022-10-22T21:11:14.950Z,12.68
2022-10-22T21:13:43.061Z,12.73
2022-10-22T21:16:12.508Z,15.43
2022-10-22T21:18:40.516Z,20.45
2022-10-22T21:21:09.740Z,14.82
2022-10-22T21:23:37.821Z,15.18
2022-10-22T21:26:07.430Z,12.55
2022-10-22T21:28:37.677Z,13.00
2022-10-22T21:31:06.604Z,16.20
2022-10-22T21:33:36.747Z,14.05
2022-10-22T21:36:04.756Z,11.95
2022-10-22T21:38:32.501Z,14.38
2022-10-22T21:41:00.146Z,13.60
2022-10-22T21:43:29.118Z,14.65
2022-10-22T21:46:08.197Z,15.88
2022-10-22T21:48:37.218Z,11.90
2022-10-22T21:51:09.206Z,14.80
2022-10-22T21:53:38.208Z,14.85
2022-10-22T21:56:07.339Z,15.85
2022-10-22T21:58:36.639Z,19.92
2022-10-22T22:01:04.960Z,20.25
2022-10-22T22:03:32.549Z,17.00
2022-10-22T22:06:00.894Z,20.27
2022-10-22T22:08:29.415Z,14.48
2022-10-22T22:11:02.226Z,14.70
2022-10-22T22:13:29.927Z,13.90
2022-10-22T22:16:02.403Z,13.07
2022-10-22T22:18:30.600Z,13.40
2022-10-22T22:20:59.083Z,17.38
2022-10-22T22:23:27.433Z,15.20
2022-10-22T22:25:59.584Z,15.80
2022-10-22T22:28:27.878Z,15.05
2022-10-22T22:30:55.539Z,14.48
2022-10-22T22:33:24.918Z,10.57
2022-10-22T22:35:52.647Z,14.02
2022-10-22T22:38:20.261Z,23.13
2022-10-22T22:40:47.957Z,14.70
2022-10-22T22:43:15.483Z,20.90
2022-10-22T22:45:43.143Z,15.75
2022-10-22T22:48:10.776Z,18.10
2022-10-22T22:50:39.706Z,17.10
2022-10-22T22:53:07.253Z,14.73
2022-10-22T22:55:34.927Z,14.25
2022-10-22T22:58:02.428Z,14.93
2022-10-22T23:00:30.004Z,16.20
2022-10-22T23:02:57.677Z,18.05
2022-10-22T23:05:25.376Z,15.77
2022-10-22T23:07:54.353Z,14.43
2022-10-22T23:10:22.182Z,14.98
2022-10-22T23:12:50.786Z,14.52
2022-10-22T23:15:18.403Z,13.70
2022-10-22T23:17:45.934Z,17.88
2022-10-22T23:20:13.725Z,17.17
2022-10-22T23:22:41.693Z,15.82
2022-10-22T23:25:11.143Z,19.75
2022-10-22T23:27:38.734Z,18.60
2022-10-22T23:30:07.465Z,15.75
2022-10-22T23:32:35.030Z,17.27
2022-10-22T23:35:02.553Z,16.13
2022-10-22T23:37:30.075Z,13.55
2022-10-22T23:39:57.983Z,16.10
2022-10-22T23:42:27.616Z,17.83
2022-10-22T23:44:55.350Z,15.43
2022-10-22T23:47:22.907Z,18.27
2022-10-22T23:49:50.475Z,16.40
2022-10-22T23:52:18.055Z,17.98
2022-10-22T23:54:45.644Z,11.40
2022-10-22T23:57:13.229Z,17.08
2022-10-22T23:59:42.202Z,13.52
